Time;durP1;ratioP1;P1;durP2;ratioP2;P2;SDS_P1;SDS_P2;PMS_P1;PMS_P2;Temp;Humidity;BMP_temperature;BMP_pressure;BME280_temperature;BME280_humidity;BME280_pressure;Samples;Min_cycle;Max_cycle;Signal;HPM_P1;HPM_P2
2022/08/16 00:00:28;;;;;;;8.00;6.00;;;24.10;99.90;;;;;;5131243;27;19994;-47
2022/08/16 00:02:55;;;;;;;6.80;6.10;;;24.10;99.90;;;;;;5122802;27;20035;-47
2022/08/16 00:05:23;;;;;;;7.25;6.55;;;24.10;99.90;;;;;;5116933;27;20020;-47
2022/08/16 00:07:50;;;;;;;7.95;6.80;;;24.20;99.90;;;;;;5119842;27;20023;-47
2022/08/16 00:10:16;;;;;;;8.82;5.95;;;24.00;99.90;;;;;;5104590;27;20028;-47
2022/08/16 00:12:43;;;;;;;7.95;6.40;;;23.90;99.90;;;;;;5074250;28;20047;-47
2022/08/16 00:15:19;;;;;;;8.90;6.60;;;23.90;99.90;;;;;;5099832;27;20034;-47
2022/08/16 00:17:45;;;;;;;7.03;5.90;;;23.90;99.90;;;;;;5118883;27;20051;-47
2022/08/16 00:20:11;;;;;;;7.97;6.25;;;;;;;;;;5131117;27;20035;-47
2022/08/16 00:22:39;;;;;;;8.27;6.28;;;;;;;;;;5121921;27;20015;-47
2022/08/16 00:25:08;;;;;;;9.55;6.40;;;23.70;99.90;;;;;;5125229;27;20035;-47
2022/08/16 00:27:33;;;;;;;7.57;5.93;;;23.70;99.90;;;;;;5103977;28;20040;-47
2022/08/16 00:29:59;;;;;;;8.30;6.20;;;23.70;99.90;;;;;;5127057;27;20029;-47
2022/08/16 00:32:25;;;;;;;7.30;6.60;;;23.60;99.90;;;;;;5097907;27;20039;-47
2022/08/16 00:34:51;;;;;;;7.55;6.63;;;23.60;99.90;;;;;;5124738;27;20023;-47
2022/08/16 00:37:18;;;;;;;7.05;6.35;;;23.60;99.90;;;;;;5124724;27;20485;-47
2022/08/16 00:39:44;;;;;;;13.52;6.57;;;23.60;99.90;;;;;;5123416;27;20119;-47
2022/08/16 00:42:10;;;;;;;8.05;6.88;;;23.60;99.90;;;;;;5115970;27;20462;-47
2022/08/16 00:44:38;;;;;;;6.78;6.13;;;23.50;99.90;;;;;;5102206;28;20040;-47
2022/08/16 00:47:08;;;;;;;8.68;6.20;;;23.40;99.90;;;;;;5099358;28;20368;-47
2022/08/16 00:49:35;;;;;;;11.07;6.82;;;23.40;99.90;;;;;;5102437;28;20031;-47
2022/08/16 00:52:02;;;;;;;7.80;6.90;;;23.30;99.90;;;;;;5066319;28;20433;-47
2022/08/16 00:54:30;;;;;;;7.55;6.75;;;23.30;99.90;;;;;;5103865;28;20404;-47
2022/08/16 00:57:01;;;;;;;7.65;6.93;;;23.40;99.90;;;;;;5068183;28;20040;-47
2022/08/16 00:59:31;;;;;;;9.32;7.40;;;23.40;99.90;;;;;;5113101;28;20084;-47
2022/08/16 01:01:58;;;;;;;7.60;6.80;;;23.40;99.90;;;;;;5106802;28;20072;-47
2022/08/16 01:04:26;;;;;;;9.48;7.03;;;23.40;99.90;;;;;;5049837;28;20043;-47
2022/08/16 01:06:53;;;;;;;8.02;7.22;;;23.40;99.90;;;;;;5102588;28;20031;-47
2022/08/16 01:09:19;;;;;;;7.93;7.22;;;23.30;99.90;;;;;;5076085;28;20096;-47
2022/08/16 01:11:46;;;;;;;9.32;7.05;;;23.30;99.90;;;;;;5102776;28;20059;-47
2022/08/16 01:14:23;;;;;;;8.40;7.20;;;23.20;99.90;;;;;;5104054;28;20398;-47
2022/08/16 01:16:50;;;;;;;7.50;6.72;;;22.80;99.90;;;;;;5058793;28;20040;-47
2022/08/16 01:19:30;;;;;;;8.25;6.85;;;22.70;99.90;;;;;;5103814;28;20048;-47
2022/08/16 01:22:18;;;;;;;9.15;7.70;;;22.70;99.90;;;;;;5104178;28;20032;-47
2022/08/16 01:24:59;;;;;;;8.30;7.45;;;23.00;99.90;;;;;;5102767;28;20027;-47
2022/08/16 01:27:37;;;;;;;8.27;7.47;;;23.10;99.90;;;;;;5103909;28;20102;-47
2022/08/16 01:30:22;;;;;;;11.02;7.07;;;23.00;99.90;;;;;;5106682;28;20424;-47
2022/08/16 01:32:49;;;;;;;9.25;6.50;;;23.10;99.90;;;;;;5100603;28;20511;-47
2022/08/16 01:35:47;;;;;;;8.73;6.75;;;23.20;99.90;;;;;;5100286;28;20055;-46
2022/08/16 01:38:48;;;;;;;8.52;7.70;;;23.00;99.90;;;;;;4993683;28;20493;-47
2022/08/16 01:41:20;;;;;;;9.80;7.63;;;22.90;99.90;;;;;;5000851;28;20058;-47
2022/08/16 01:43:47;;;;;;;8.68;7.82;;;22.40;99.90;;;;;;5001613;28;20038;-47
2022/08/16 01:46:29;;;;;;;8.75;7.90;;;22.30;99.90;;;;;;5024199;28;20087;-47
2022/08/16 01:48:57;;;;;;;;;;;22.40;99.90;;;;;;4996249;28;20041;-47
2022/08/16 01:51:25;;;;;;;10.30;8.10;;;22.50;99.90;;;;;;5017745;28;19909;-47
2022/08/16 01:53:51;;;;;;;8.75;7.85;;;22.60;99.90;;;;;;5028073;28;20052;-47
2022/08/16 01:56:18;;;;;;;9.18;8.25;;;22.50;99.90;;;;;;4987638;28;20041;-48
2022/08/16 01:58:44;;;;;;;9.23;7.90;;;;;;;;;;5018456;28;20133;-47
2022/08/16 02:01:10;;;;;;;8.40;7.55;;;;;;;;;;5022564;28;20038;-47
2022/08/16 02:03:37;;;;;;;9.98;8.35;;;22.20;99.90;;;;;;5011522;28;20560;-47
2022/08/16 02:06:03;;;;;;;12.38;8.35;;;22.20;99.90;;;;;;5021123;28;20061;-47
2022/08/16 02:08:29;;;;;;;8.98;8.10;;;22.30;99.90;;;;;;5014909;28;20046;-47
2022/08/16 02:10:55;;;;;;;8.23;7.43;;;22.30;99.90;;;;;;5006047;28;20038;-47
2022/08/16 02:13:21;;;;;;;8.40;7.53;;;22.30;99.90;;;;;;5026057;28;20050;-47
2022/08/16 02:15:47;;;;;;;8.77;7.75;;;21.80;99.90;;;;;;5073558;28;20041;-47
2022/08/16 02:18:13;;;;;;;8.63;7.28;;;21.60;99.90;;;;;;5101163;28;20036;-47
2022/08/16 02:20:40;;;;;;;8.98;7.85;;;;;;;;;;5103464;28;20084;-47
2022/08/16 02:23:07;;;;;;;8.60;7.63;;;21.50;99.90;;;;;;5097754;28;20030;-47
2022/08/16 02:25:34;;;;;;;10.13;7.38;;;21.30;99.90;;;;;;5072067;28;20039;-47
2022/08/16 02:28:00;;;;;;;7.82;7.07;;;21.30;99.90;;;;;;5103413;28;20387;-47
2022/08/16 02:30:28;;;;;;;8.27;6.95;;;21.20;99.90;;;;;;5100800;28;20028;-47
2022/08/16 02:32:55;;;;;;;7.72;7.03;;;21.30;99.90;;;;;;5097926;28;20040;-47
2022/08/16 02:35:21;;;;;;;8.05;7.25;;;21.40;99.90;;;;;;5097113;28;20024;-47
2022/08/16 02:37:47;;;;;;;8.68;7.88;;;21.50;99.90;;;;;;5044658;28;20117;-47
2022/08/16 02:40:15;;;;;;;9.32;8.32;;;;;;;;;;5062448;28;20071;-47
2022/08/16 02:42:43;;;;;;;8.70;7.80;;;20.00;99.90;;;;;;5100988;28;20043;-47
2022/08/16 02:45:09;;;;;;;10.52;7.93;;;21.20;99.90;;;;;;5057784;28;20043;-47
2022/08/16 02:47:35;;;;;;;11.40;7.43;;;21.10;99.90;;;;;;5059661;28;20064;-47
2022/08/16 02:50:02;;;;;;;13.43;7.10;;;21.30;99.90;;;;;;5017403;28;20072;-47
2022/08/16 02:52:29;;;;;;;8.32;7.43;;;;;;;;;;5060237;28;20051;-47
2022/08/16 02:54:54;;;;;;;7.70;6.97;;;21.80;99.90;;;;;;5063491;28;20032;-47
2022/08/16 02:57:22;;;;;;;12.05;8.00;;;21.90;99.90;;;;;;5009393;28;20413;-47
2022/08/16 02:59:47;;;;;;;8.85;7.95;;;22.10;99.90;;;;;;5065990;28;20595;-47
2022/08/16 03:02:13;;;;;;;11.35;7.18;;;21.90;99.90;;;;;;5058045;28;20115;-47
2022/08/16 03:04:39;;;;;;;10.98;7.25;;;21.80;99.90;;;;;;5030042;28;20156;-47
2022/08/16 03:07:06;;;;;;;10.10;7.13;;;21.80;99.90;;;;;;5060934;28;20078;-47
2022/08/16 03:09:33;;;;;;;9.45;7.35;;;21.70;99.90;;;;;;5065106;28;20028;-47
2022/08/16 03:11:59;;;;;;;8.45;7.65;;;21.70;99.90;;;;;;5062190;28;20083;-47
2022/08/16 03:14:25;;;;;;;8.90;8.00;;;21.70;99.90;;;;;;5053475;28;20041;-47
2022/08/16 03:16:52;;;;;;;8.90;7.97;;;21.60;99.90;;;;;;5057748;28;20568;-47
2022/08/16 03:19:19;;;;;;;10.50;9.15;;;21.50;99.90;;;;;;5065700;28;20550;-47
2022/08/16 03:21:45;;;;;;;9.50;8.50;;;21.50;99.90;;;;;;5060916;28;20033;-47
2022/08/16 03:24:11;;;;;;;8.98;7.90;;;21.50;99.90;;;;;;5061615;28;20115;-47
2022/08/16 03:26:37;;;;;;;7.97;6.63;;;21.60;99.90;;;;;;5047673;28;20134;-47
2022/08/16 03:29:03;;;;;;;8.38;7.57;;;21.60;99.90;;;;;;5107221;28;20145;-47
2022/08/16 03:31:29;;;;;;;9.35;7.47;;;21.90;99.90;;;;;;5098010;28;20027;-47
2022/08/16 03:33:54;;;;;;;7.82;6.50;;;22.00;99.90;;;;;;5095338;28;20044;-47
2022/08/16 03:36:20;;;;;;;8.55;7.07;;;22.10;99.90;;;;;;5057357;28;20027;-47
2022/08/16 03:38:47;;;;;;;8.65;7.75;;;22.20;99.90;;;;;;5104468;28;20110;-47
2022/08/16 03:41:13;;;;;;;10.50;7.57;;;22.10;99.90;;;;;;5094346;28;20119;-46
2022/08/16 03:43:39;;;;;;;14.45;8.60;;;21.90;99.90;;;;;;5106118;28;20084;-47
2022/08/16 03:46:05;;;;;;;8.23;7.35;;;21.80;99.90;;;;;;5078115;28;20047;-47
2022/08/16 03:48:34;;;;;;;10.40;8.40;;;21.80;99.90;;;;;;5060253;28;20031;-47
2022/08/16 03:51:01;;;;;;;12.07;7.68;;;21.70;99.90;;;;;;5114233;28;20107;-47
2022/08/16 03:53:28;;;;;;;8.82;7.93;;;21.90;99.90;;;;;;5113837;28;20444;-47
2022/08/16 03:55:54;;;;;;;9.98;8.00;;;21.60;99.90;;;;;;5114570;28;20084;-47
2022/08/16 03:58:20;;;;;;;11.02;7.85;;;21.60;99.90;;;;;;5066482;28;20426;-47
2022/08/16 04:00:48;;;;;;;8.68;7.63;;;21.70;99.90;;;;;;5073627;28;20126;-47
2022/08/16 04:03:14;;;;;;;11.68;8.85;;;21.80;99.90;;;;;;5074336;28;20047;-45
2022/08/16 04:05:45;;;;;;;9.85;7.93;;;22.10;99.90;;;;;;5109443;28;20038;-47
2022/08/16 04:08:12;;;;;;;18.55;9.60;;;22.30;99.90;;;;;;5113412;28;20035;-45
2022/08/16 04:10:38;;;;;;;10.00;8.45;;;22.40;99.90;;;;;;5110186;28;20036;-45
2022/08/16 04:13:04;;;;;;;9.60;7.90;;;22.50;99.90;;;;;;5114557;28;20020;-45
2022/08/16 04:15:30;;;;;;;9.60;8.48;;;22.60;99.90;;;;;;5094228;28;20046;-45
2022/08/16 04:17:57;;;;;;;11.65;8.68;;;22.60;99.90;;;;;;5113302;28;20382;-46
2022/08/16 04:20:24;;;;;;;14.07;11.95;;;22.70;99.90;;;;;;5112755;28;20063;-45
2022/08/16 04:22:50;;;;;;;61.65;58.05;;;22.80;99.90;;;;;;5110464;28;20459;-45
2022/08/16 04:25:17;;;;;;;213.07;201.15;;;22.80;99.90;;;;;;5113247;28;20364;-45
2022/08/16 04:27:42;;;;;;;203.68;192.20;;;22.80;99.90;;;;;;5050034;28;20044;-45
2022/08/16 04:30:12;;;;;;;301.08;283.38;;;22.90;99.90;;;;;;5113608;28;20391;-45
2022/08/16 04:32:39;;;;;;;236.50;222.93;;;22.90;99.90;;;;;;5072037;28;20457;-46
2022/08/16 04:35:07;;;;;;;212.55;200.43;;;23.00;99.90;;;;;;5112944;28;20033;-46
2022/08/16 04:37:33;;;;;;;248.43;234.75;;;23.00;99.90;;;;;;5077940;28;20032;-45
2022/08/16 04:39:59;;;;;;;373.77;352.65;;;23.10;99.90;;;;;;5113670;28;20553;-45
2022/08/16 04:42:25;;;;;;;260.10;245.63;;;23.20;99.90;;;;;;5113451;28;20100;-45
2022/08/16 04:44:54;;;;;;;421.02;397.42;;;23.20;99.90;;;;;;5061568;28;20032;-45
2022/08/16 04:47:20;;;;;;;158.68;149.75;;;23.30;99.90;;;;;;5113780;28;20039;-45
2022/08/16 04:49:46;;;;;;;271.98;257.98;;;23.30;99.90;;;;;;5113403;28;20123;-45
2022/08/16 04:52:12;;;;;;;21.85;17.08;;;23.30;99.90;;;;;;5113709;28;20107;-46
2022/08/16 04:54:39;;;;;;;482.02;454.73;;;23.40;99.90;;;;;;5077334;28;20046;-45
2022/08/16 04:57:05;;;;;;;535.00;504.67;;;23.50;99.90;;;;;;5061349;28;20089;-45
2022/08/16 04:59:31;;;;;;;238.88;226.07;;;23.50;99.90;;;;;;5113458;28;20391;-46
2022/08/16 05:01:57;;;;;;;247.38;233.75;;;23.60;99.90;;;;;;5113380;28;20034;-45
2022/08/16 05:04:23;;;;;;;352.83;333.92;;;23.60;99.90;;;;;;5060833;28;20047;-45
2022/08/16 05:06:50;;;;;;;227.23;215.23;;;23.70;99.90;;;;;;5113766;28;20031;-45
2022/08/16 05:09:17;;;;;;;279.90;264.35;;;23.80;99.90;;;;;;5113036;28;20028;-45
2022/08/16 05:11:44;;;;;;;196.68;186.57;;;23.90;99.90;;;;;;5113051;28;20088;-45
2022/08/16 05:14:11;;;;;;;220.30;208.13;;;;;;;;;;5112678;28;20553;-45
2022/08/16 05:16:37;;;;;;;237.57;224.55;;;;;;;;;;5112945;28;20028;-45
2022/08/16 05:19:05;;;;;;;220.80;208.50;;;;;;;;;;5113205;28;20027;-46
2022/08/16 05:21:32;;;;;;;214.52;203.00;;;;;;;;;;5113148;28;20390;-45
2022/08/16 05:23:58;;;;;;;215.05;203.70;;;;;;;;;;5113175;28;20024;-45
2022/08/16 05:26:26;;;;;;;291.55;274.65;;;;;;;;;;5060356;28;20031;-47
2022/08/16 05:28:52;;;;;;;281.50;265.75;;;24.60;99.90;;;;;;5113117;28;20024;-45
2022/08/16 05:31:18;;;;;;;239.98;226.98;;;;;;;;;;5060296;28;20032;-45
2022/08/16 05:33:44;;;;;;;390.45;366.33;;;;;;;;;;5076687;28;20039;-45
2022/08/16 05:36:10;;;;;;;723.88;676.88;;;24.90;99.90;;;;;;5112709;28;20020;-45
2022/08/16 05:38:36;;;;;;;717.53;670.90;;;25.00;99.90;;;;;;5060151;28;20036;-45
2022/08/16 05:41:03;;;;;;;7.22;6.32;;;25.00;99.90;;;;;;5112704;28;20502;-45
2022/08/16 05:43:29;;;;;;;6.18;4.90;;;25.10;99.90;;;;;;5112602;28;20043;-45
2022/08/16 05:45:58;;;;;;;6.63;5.15;;;25.00;99.90;;;;;;5093556;28;20055;-45
2022/08/16 05:48:24;;;;;;;7.57;5.35;;;25.20;99.90;;;;;;5112552;28;20031;-45
2022/08/16 05:50:50;;;;;;;6.40;5.22;;;25.10;99.90;;;;;;5112600;28;20116;-45
2022/08/16 05:53:16;;;;;;;11.90;6.00;;;25.30;99.90;;;;;;5113030;28;20039;-45
2022/08/16 05:55:42;;;;;;;6.85;4.18;;;25.40;99.90;;;;;;5112798;28;20413;-45
2022/08/16 05:58:08;;;;;;;10.02;5.15;;;25.60;99.90;;;;;;5112527;28;20036;-45
2022/08/16 06:00:34;;;;;;;5.97;5.35;;;25.90;99.90;;;;;;5112764;28;20081;-45
2022/08/16 06:03:00;;;;;;;6.40;4.65;;;25.90;99.90;;;;;;5112659;28;20076;-45
2022/08/16 06:05:26;;;;;;;5.53;4.13;;;26.10;99.90;;;;;;5112680;28;20432;-45
2022/08/16 06:07:52;;;;;;;6.78;4.85;;;26.20;99.90;;;;;;5112519;28;20035;-45
2022/08/16 06:10:18;;;;;;;5.45;4.75;;;26.20;99.90;;;;;;5112705;28;20058;-45
2022/08/16 06:12:44;;;;;;;8.35;5.07;;;26.40;99.90;;;;;;5112501;28;20073;-45
2022/08/16 06:15:16;;;;;;;7.70;4.65;;;26.50;99.90;;;;;;5112359;28;20495;-45
2022/08/16 06:17:43;;;;;;;10.30;5.57;;;26.70;99.90;;;;;;5112726;28;20038;-45
2022/08/16 06:20:14;;;;;;;5.32;4.82;;;26.70;99.90;;;;;;5112319;28;20031;-45
2022/08/16 06:22:41;;;;;;;13.52;5.60;;;26.90;99.90;;;;;;5112268;28;20028;-45
2022/08/16 06:25:08;;;;;;;6.22;4.30;;;27.00;99.90;;;;;;5112446;28;20042;-45
2022/08/16 06:27:34;;;;;;;8.05;4.72;;;;;;;;;;5063326;28;20177;-45
2022/08/16 06:29:59;;;;;;;8.50;5.30;;;27.10;99.90;;;;;;5116394;28;20031;-45
2022/08/16 06:32:25;;;;;;;6.93;4.35;;;;;;;;;;5116218;28;20454;-45
2022/08/16 06:34:51;;;;;;;6.07;4.10;;;27.40;99.90;;;;;;5063839;28;20051;-45
2022/08/16 06:37:17;;;;;;;5.80;4.32;;;;;;;;;;5116263;28;20027;-45
2022/08/16 06:39:43;;;;;;;7.88;4.22;;;;;;;;;;5116298;28;20089;-45
2022/08/16 06:42:10;;;;;;;7.82;4.22;;;;;;;;;;5115819;28;20046;-45
2022/08/16 06:44:35;;;;;;;7.90;4.30;;;27.90;99.90;;;;;;5063063;28;20036;-49
2022/08/16 06:47:01;;;;;;;6.13;3.80;;;;;;;;;;5116115;28;20042;-48
2022/08/16 06:49:27;;;;;;;5.32;3.85;;;;;;;;;;5113582;28;20118;-44
2022/08/16 06:51:54;;;;;;;5.57;4.25;;;;;;;;;;5095402;28;20024;-46
2022/08/16 06:54:20;;;;;;;7.55;3.78;;;;;;;;;;5076076;28;20056;-47
2022/08/16 06:56:46;;;;;;;6.72;4.00;;;;;;;;;;5094079;28;20032;-49
2022/08/16 06:59:12;;;;;;;6.32;3.60;;;;;;;;;;5095835;28;20031;-45
2022/08/16 07:01:38;;;;;;;8.63;4.03;;;;;;;;;;5101838;28;20079;-47
2022/08/16 07:04:05;;;;;;;5.90;3.90;;;;;;;;;;5102126;28;20020;-44
2022/08/16 07:06:31;;;;;;;8.57;3.97;;;28.60;99.90;;;;;;5101894;28;20023;-48
2022/08/16 07:08:57;;;;;;;6.30;3.40;;;;;;;;;;5102212;28;20020;-43
2022/08/16 07:11:25;;;;;;;6.68;3.65;;;;;;;;;;5101576;28;20038;-44
2022/08/16 07:13:51;;;;;;;6.97;3.45;;;;;;;;;;5079292;28;20087;-45
2022/08/16 07:16:19;;;;;;;7.38;4.00;;;;;;;;;;5102771;28;20487;-45
2022/08/16 07:18:46;;;;;;;6.20;3.25;;;29.00;97.70;;;;;;5094496;28;20118;-46
2022/08/16 07:21:12;;;;;;;6.88;3.60;;;;;;;;;;5095167;28;20383;-45
2022/08/16 07:23:40;;;;;;;5.10;3.00;;;29.10;99.90;;;;;;5109439;28;20023;-46
2022/08/16 07:26:17;;;;;;;5.78;3.28;;;29.30;99.90;;;;;;5088442;28;20036;-46
2022/08/16 07:28:43;;;;;;;5.00;3.42;;;29.30;96.40;;;;;;5106288;28;20055;-44
2022/08/16 07:31:09;;;;;;;5.38;3.10;;;29.40;96.50;;;;;;5102555;28;20107;-44
2022/08/16 07:33:36;;;;;;;8.40;3.85;;;29.40;95.50;;;;;;5112586;28;20032;-44
2022/08/16 07:36:03;;;;;;;6.47;3.75;;;29.50;95.20;;;;;;5094544;28;20395;-44
2022/08/16 07:38:29;;;;;;;9.13;4.30;;;29.50;95.50;;;;;;5047684;28;20039;-44
2022/08/16 07:40:56;;;;;;;4.82;3.40;;;29.50;94.70;;;;;;5104813;28;20032;-45
2022/08/16 07:43:22;;;;;;;5.72;3.33;;;29.70;94.40;;;;;;5106659;28;20048;-44
2022/08/16 07:45:49;;;;;;;6.55;3.58;;;29.60;94.30;;;;;;5058493;28;20067;-45
2022/08/16 07:48:15;;;;;;;10.07;3.97;;;29.70;94.00;;;;;;5094185;28;20104;-44
2022/08/16 07:50:42;;;;;;;13.13;3.65;;;29.60;93.70;;;;;;5099669;28;20475;-52
2022/08/16 07:53:08;;;;;;;4.82;3.60;;;29.70;93.70;;;;;;5097392;28;20036;-43
2022/08/16 07:55:34;;;;;;;6.65;3.28;;;29.80;94.00;;;;;;5098746;28;20068;-45
2022/08/16 07:58:01;;;;;;;6.15;3.25;;;29.90;99.90;;;;;;5104781;28;20043;-49
2022/08/16 08:00:26;;;;;;;9.10;3.35;;;30.00;93.60;;;;;;5103202;28;20031;-46
2022/08/16 08:02:54;;;;;;;6.00;3.17;;;30.00;93.50;;;;;;5101172;28;20089;-46
2022/08/16 08:05:22;;;;;;;12.73;3.65;;;29.80;93.30;;;;;;5078284;28;20075;-46
2022/08/16 08:07:48;;;;;;;5.68;3.42;;;29.70;93.60;;;;;;5113974;28;20112;-46
2022/08/16 08:10:14;;;;;;;7.30;3.65;;;30.00;93.70;;;;;;5114107;28;20475;-46
2022/08/16 08:12:42;;;;;;;5.70;3.53;;;29.90;93.10;;;;;;5113971;28;20386;-45
2022/08/16 08:15:10;;;;;;;5.00;3.28;;;30.00;93.50;;;;;;5114244;28;20039;-46
2022/08/16 08:17:38;;;;;;;10.55;3.83;;;30.10;94.00;;;;;;5114006;28;20043;-46
2022/08/16 08:20:09;;;;;;;6.15;3.45;;;30.10;93.60;;;;;;5114103;28;20058;-46
2022/08/16 08:22:35;;;;;;;6.43;3.40;;;;;;;;;;5077860;28;20042;-45
2022/08/16 08:25:02;;;;;;;4.40;3.13;;;30.40;99.90;;;;;;5114103;28;20264;-46
2022/08/16 08:27:28;;;;;;;8.32;4.38;;;30.50;99.90;;;;;;5114016;28;20031;-46
2022/08/16 08:29:54;;;;;;;12.70;3.72;;;;;;;;;;5094625;28;20383;-45
2022/08/16 08:32:20;;;;;;;5.97;3.40;;;30.70;92.80;;;;;;5113662;28;20559;-46
2022/08/16 08:34:46;;;;;;;6.55;3.90;;;;;;;;;;5077596;28;20071;-46
2022/08/16 08:37:13;;;;;;;7.43;3.50;;;;;;;;;;5113894;28;20108;-45
2022/08/16 08:39:39;;;;;;;4.15;3.00;;;;;;;;;;5113485;28;20239;-46
2022/08/16 08:42:06;;;;;;;5.75;3.42;;;;;;;;;;5113363;28;20092;-46
2022/08/16 08:44:32;;;;;;;6.20;3.33;;;;;;;;;;5113484;28;20031;-46
2022/08/16 08:47:00;;;;;;;6.75;3.67;;;31.30;92.30;;;;;;5113705;28;20027;-45
2022/08/16 08:49:26;;;;;;;5.90;3.75;;;31.30;92.50;;;;;;5093443;28;20127;-46
2022/08/16 08:51:51;;;;;;;6.80;4.30;;;31.50;92.60;;;;;;5113262;28;20117;-46
2022/08/16 08:54:17;;;;;;;6.47;3.72;;;;;;;;;;5077186;28;20055;-45
2022/08/16 08:56:44;;;;;;;6.35;3.42;;;31.90;99.90;;;;;;5113488;28;20038;-45
2022/08/16 08:59:11;;;;;;;6.90;4.03;;;;;;;;;;5113232;28;20085;-45
2022/08/16 09:01:37;;;;;;;4.53;3.60;;;;;;;;;;5113153;28;20039;-45
2022/08/16 09:04:05;;;;;;;7.15;4.10;;;;;;;;;;5113347;28;20088;-45
2022/08/16 09:06:31;;;;;;;5.55;3.58;;;32.20;91.90;;;;;;5113064;28;20088;-46
2022/08/16 09:08:58;;;;;;;7.82;3.90;;;32.10;91.80;;;;;;5077104;28;20074;-45
2022/08/16 09:11:25;;;;;;;4.95;3.63;;;32.40;91.40;;;;;;5113146;28;20035;-45
2022/08/16 09:13:51;;;;;;;6.13;3.85;;;32.10;91.60;;;;;;5112840;28;20075;-45
2022/08/16 09:16:18;;;;;;;5.88;3.60;;;32.50;91.20;;;;;;5113207;28;20059;-45
2022/08/16 09:18:44;;;;;;;7.25;3.70;;;32.60;90.90;;;;;;5113079;28;20093;-45
2022/08/16 09:21:11;;;;;;;5.07;3.25;;;;;;;;;;5112923;28;20067;-45
2022/08/16 09:23:38;;;;;;;7.68;3.40;;;;;;;;;;5112166;28;20019;-45
2022/08/16 09:26:09;;;;;;;6.97;2.95;;;;;;;;;;5112722;28;20031;-45
2022/08/16 09:28:36;;;;;;;6.38;3.65;;;;;;;;;;5112840;28;20055;-45
2022/08/16 09:31:03;;;;;;;4.75;3.00;;;;;;;;;;5111998;28;20122;-48
2022/08/16 09:33:29;;;;;;;6.05;2.90;;;;;;;;;;5076512;28;20051;-49
2022/08/16 09:35:56;;;;;;;4.38;2.60;;;;;;;;;;5112224;28;20028;-45
2022/08/16 09:38:23;;;;;;;9.88;2.95;;;;;;;;;;5076695;28;20031;-45
2022/08/16 09:43:58;;;;;;;10.82;2.97;;;;;;;;;;5122993;27;20076;-45
2022/08/16 09:46:26;;;;;;;4.45;2.80;;;;;;;;;;5072702;28;20067;-46
2022/08/16 09:48:53;;;;;;;5.03;2.67;;;;;;;;;;5069096;28;20451;-46
2022/08/16 09:51:22;;;;;;;6.28;3.17;;;;;;;;;;5112587;28;20059;-45
2022/08/16 09:53:48;;;;;;;7.68;2.53;;;;;;;;;;5071936;28;20075;-46
2022/08/16 09:56:22;;;;;;;7.63;2.92;;;;;;;;;;5107626;28;20027;-45
2022/08/16 09:58:48;;;;;;;3.97;2.40;;;;;;;;;;5112389;28;20027;-45
2022/08/16 10:01:15;;;;;;;4.82;2.80;;;;;;;;;;5112869;28;20032;-46
2022/08/16 10:03:41;;;;;;;3.08;2.30;;;33.90;99.50;;;;;;5098988;28;20028;-45
2022/08/16 10:06:07;;;;;;;7.10;2.40;;;;;;;;;;5060447;28;20036;-45
2022/08/16 10:08:33;;;;;;;4.07;2.83;;;;;;;;;;5041072;28;20490;-45
2022/08/16 10:13:43;;;;;;;3.95;2.92;;;34.50;83.10;;;;;;5111289;28;20086;-45
2022/08/16 10:16:12;;;;;;;4.72;2.42;;;34.40;84.10;;;;;;5056971;28;20102;-46
2022/08/16 10:18:40;;;;;;;4.70;3.20;;;34.10;83.60;;;;;;5095976;28;20035;-46
2022/08/16 10:21:06;;;;;;;4.40;2.60;;;34.40;84.10;;;;;;5096041;28;20494;-45
2022/08/16 10:23:32;;;;;;;5.28;2.85;;;34.10;83.20;;;;;;5095861;28;20024;-45
2022/08/16 10:25:58;;;;;;;3.83;2.88;;;34.20;83.80;;;;;;5095828;28;20024;-45
2022/08/16 10:28:24;;;;;;;3.67;2.80;;;34.00;84.70;;;;;;5096096;28;20028;-44
2022/08/16 10:30:51;;;;;;;5.45;2.60;;;34.20;85.00;;;;;;5060082;28;20089;-45
2022/08/16 10:33:16;;;;;;;4.10;2.72;;;34.00;84.20;;;;;;5095664;28;20473;-45
2022/08/16 10:35:44;;;;;;;5.10;2.45;;;34.20;84.10;;;;;;5095501;28;20115;-45
2022/08/16 10:38:12;;;;;;;6.55;2.80;;;33.50;84.10;;;;;;5095667;28;20032;-45
2022/08/16 10:40:39;;;;;;;4.97;2.78;;;33.70;84.30;;;;;;5095536;28;20387;-45
2022/08/16 10:43:05;;;;;;;2.95;2.42;;;33.70;84.50;;;;;;5095163;28;20032;-45
2022/08/16 10:45:31;;;;;;;5.20;2.90;;;33.80;83.70;;;;;;5076526;28;20118;-45
2022/08/16 10:47:58;;;;;;;7.53;2.85;;;33.70;84.30;;;;;;5095328;28;20024;-45
2022/08/16 10:50:25;;;;;;;4.80;2.70;;;33.70;83.80;;;;;;5095490;28;20034;-45
2022/08/16 10:52:52;;;;;;;5.50;3.08;;;33.80;83.80;;;;;;5076305;28;20127;-45
2022/08/16 10:55:19;;;;;;;9.93;3.15;;;33.80;83.80;;;;;;5095299;28;20028;-45
2022/08/16 10:57:45;;;;;;;4.15;2.33;;;33.50;83.60;;;;;;5095254;28;20110;-45
2022/08/16 11:00:13;;;;;;;5.95;3.88;;;33.10;83.80;;;;;;5095639;28;20112;-45
2022/08/16 11:02:41;;;;;;;4.65;3.00;;;33.30;84.50;;;;;;5095342;28;20060;-45
2022/08/16 11:05:11;;;;;;;5.20;3.08;;;33.00;84.10;;;;;;5095099;28;20032;-45
2022/08/16 11:07:39;;;;;;;6.13;2.83;;;32.90;85.10;;;;;;5095145;28;20056;-45
2022/08/16 11:10:06;;;;;;;4.57;2.85;;;32.90;84.70;;;;;;5073270;28;20055;-44
2022/08/16 11:12:31;;;;;;;3.85;3.00;;;33.00;84.70;;;;;;5094137;28;20337;-45
2022/08/16 11:14:57;;;;;;;5.97;3.10;;;33.20;85.10;;;;;;5094888;28;20065;-45
2022/08/16 11:17:23;;;;;;;4.25;3.03;;;33.00;84.90;;;;;;5094850;28;20020;-45
2022/08/16 11:19:49;;;;;;;5.35;2.88;;;32.90;85.30;;;;;;5094799;28;20035;-45
2022/08/16 11:22:15;;;;;;;7.32;3.22;;;32.90;86.00;;;;;;5075874;28;20109;-45
2022/08/16 11:24:41;;;;;;;5.90;3.20;;;32.90;84.90;;;;;;5094724;28;20020;-45
2022/08/16 11:27:08;;;;;;;5.45;2.92;;;32.90;85.30;;;;;;5094625;28;20039;-45
2022/08/16 11:29:34;;;;;;;5.40;2.92;;;33.10;84.60;;;;;;5094632;28;20472;-46
2022/08/16 11:32:04;;;;;;;3.97;2.83;;;33.00;84.20;;;;;;5094503;28;20487;-45
2022/08/16 11:34:29;;;;;;;5.10;2.90;;;32.70;83.90;;;;;;5094818;28;20044;-45
2022/08/16 11:36:55;;;;;;;3.78;2.80;;;33.10;83.90;;;;;;5094540;28;20023;-45
2022/08/16 11:39:21;;;;;;;4.20;2.83;;;33.20;83.90;;;;;;5042036;28;20028;-44
2022/08/16 11:41:47;;;;;;;4.18;2.80;;;33.20;83.80;;;;;;5094934;28;20491;-44
2022/08/16 11:44:12;;;;;;;5.07;3.67;;;33.00;83.60;;;;;;5094315;28;20052;-45
2022/08/16 11:46:38;;;;;;;4.05;3.05;;;33.10;84.00;;;;;;5075461;28;20044;-45
2022/08/16 11:49:05;;;;;;;7.28;2.92;;;33.20;84.40;;;;;;5075180;28;20048;-45
2022/08/16 11:51:30;;;;;;;6.88;3.42;;;33.50;84.00;;;;;;5094362;28;20422;-45
2022/08/16 11:53:57;;;;;;;4.22;2.83;;;33.90;83.50;;;;;;5094260;28;20090;-45
2022/08/16 11:56:23;;;;;;;5.78;2.97;;;;;;;;;;5075213;28;20039;-46
2022/08/16 11:58:49;;;;;;;4.65;3.10;;;;;;;;;;5074989;28;20042;-46
2022/08/16 12:01:15;;;;;;;6.05;3.35;;;34.70;88.60;;;;;;5093988;28;20024;-45
2022/08/16 12:03:41;;;;;;;5.28;3.50;;;34.50;88.00;;;;;;5093616;28;20494;-45
2022/08/16 12:06:16;;;;;;;4.78;3.13;;;34.60;88.40;;;;;;5104297;28;20024;-44
2022/08/16 12:08:43;;;;;;;5.40;3.75;;;34.60;89.90;;;;;;5113536;28;20096;-44
2022/08/16 12:11:10;;;;;;;6.20;3.13;;;;;;;;;;5093670;28;20028;-44
2022/08/16 12:13:37;;;;;;;4.95;3.20;;;34.90;82.20;;;;;;5112086;28;20028;-44
2022/08/16 12:16:03;;;;;;;6.85;3.28;;;35.00;82.70;;;;;;5114303;28;20066;-44
2022/08/16 12:18:29;;;;;;;5.70;3.22;;;35.10;82.80;;;;;;5114137;28;20024;-44
2022/08/16 12:20:55;;;;;;;3.20;2.60;;;34.80;81.80;;;;;;5112736;28;20066;-44
2022/08/16 12:23:21;;;;;;;4.18;3.40;;;34.90;82.00;;;;;;5027725;28;20063;-44
2022/08/16 12:25:47;;;;;;;6.05;3.03;;;35.30;82.70;;;;;;5113718;28;20081;-44
2022/08/16 12:28:13;;;;;;;5.13;3.30;;;34.90;81.80;;;;;;5114086;28;20024;-45
2022/08/16 12:30:41;;;;;;;4.35;3.60;;;34.80;82.70;;;;;;5077664;28;20035;-45
2022/08/16 12:33:09;;;;;;;6.78;3.00;;;34.60;83.10;;;;;;5113645;28;20158;-44
2022/08/16 12:35:38;;;;;;;7.38;3.42;;;35.00;83.40;;;;;;5113670;28;20034;-45
2022/08/16 12:38:04;;;;;;;4.07;3.00;;;34.70;83.70;;;;;;5080217;28;20025;-44
2022/08/16 12:40:34;;;;;;;8.93;3.67;;;34.40;84.10;;;;;;5104331;28;20045;-45
2022/08/16 12:43:03;;;;;;;4.85;3.42;;;34.40;84.50;;;;;;5112579;28;20113;-45
2022/08/16 12:45:32;;;;;;;7.05;2.97;;;34.10;84.30;;;;;;5092225;28;20044;-44
2022/08/16 12:50:43;;;;;;;6.60;3.50;;;33.70;84.10;;;;;;5092088;28;20728;-45
2022/08/16 12:53:10;;;;;;;4.88;3.10;;;33.60;84.40;;;;;;5096269;28;20660;-45
2022/08/16 12:55:36;;;;;;;5.63;3.30;;;33.60;82.50;;;;;;5072131;28;20481;-45
2022/08/16 12:58:03;;;;;;;6.18;3.05;;;33.70;83.10;;;;;;5094018;28;20036;-45
2022/08/16 13:00:30;;;;;;;6.00;3.03;;;34.10;81.60;;;;;;5113384;28;20035;-45
2022/08/16 13:03:00;;;;;;;7.10;3.10;;;34.20;81.30;;;;;;5077548;28;20032;-45
2022/08/16 13:05:27;;;;;;;5.10;2.75;;;34.60;81.00;;;;;;5098951;28;20039;-44
2022/08/16 13:07:56;;;;;;;6.63;2.90;;;34.60;81.00;;;;;;5104501;28;20156;-45
2022/08/16 13:10:23;;;;;;;3.92;2.70;;;34.70;79.90;;;;;;5100665;28;20103;-45